Time;durP1;ratioP1;P1;durP2;ratioP2;P2;SDS_P1;SDS_P2;PMS_P1;PMS_P2;Temp;Humidity;BMP_temperature;BMP_pressure;BME280_temperature;BME280_humidity;BME280_pressure;Samples;Min_cycle;Max_cycle;Signal;HPM_P1;HPM_P2
2023/10/07 03:01:39;;;;;;;10.98;7.03;;;21.00;46.70;;;;;;5333476;23;46166;-84
2023/10/07 03:04:10;;;;;;;10.88;6.68;;;21.00;46.70;;;;;;4889162;28;45427;-83
2023/10/07 03:06:37;;;;;;;10.30;7.40;;;21.00;46.70;;;;;;4859073;28;45323;-83
2023/10/07 03:09:10;;;;;;;11.07;7.40;;;21.00;46.60;;;;;;4889732;28;45007;-84
2023/10/07 03:11:48;;;;;;;10.77;7.03;;;21.00;46.70;;;;;;4888367;28;45383;-85
2023/10/07 03:14:23;;;;;;;9.85;6.65;;;21.00;46.60;;;;;;4876799;28;45693;-83
2023/10/07 03:16:59;;;;;;;10.30;7.10;;;21.00;46.60;;;;;;4878281;28;46041;-88
2023/10/07 03:19:52;;;;;;;9.95;7.32;;;21.00;46.60;;;;;;4875100;28;44894;-83
2023/10/07 03:22:15;;;;;;;9.77;7.13;;;20.90;46.50;;;;;;4883419;28;46221;-83
2023/10/07 03:24:41;;;;;;;10.38;6.78;;;20.90;46.50;;;;;;4858385;28;44730;-83
2023/10/07 03:27:25;;;;;;;9.98;6.75;;;20.90;46.50;;;;;;4896131;28;46482;-85
2023/10/07 03:30:12;;;;;;;10.30;7.18;;;21.00;46.60;;;;;;4861953;28;45044;-83
2023/10/07 03:32:54;;;;;;;10.77;7.20;;;20.90;46.50;;;;;;4876425;28;45265;-84
2023/10/07 03:35:35;;;;;;;11.73;7.50;;;20.90;46.50;;;;;;4888657;28;45756;-84
2023/10/07 03:38:08;;;;;;;9.37;6.40;;;20.90;47.10;;;;;;4857637;28;45410;-83
2023/10/07 03:40:48;;;;;;;9.97;7.13;;;20.90;46.50;;;;;;4855087;28;45408;-87
2023/10/07 03:43:14;;;;;;;11.23;7.18;;;21.00;46.50;;;;;;4855931;29;45272;-82
2023/10/07 03:45:40;;;;;;;11.05;7.10;;;20.90;46.40;;;;;;4869036;28;44959;-88
2023/10/07 03:48:22;;;;;;;9.82;6.68;;;20.90;46.50;;;;;;4865891;28;45857;-83
2023/10/07 03:50:55;;;;;;;10.25;6.97;;;20.90;46.40;;;;;;4883590;28;45686;-83
2023/10/07 03:53:23;;;;;;;10.50;6.85;;;20.90;46.40;;;;;;4872806;28;45480;-83
2023/10/07 03:55:50;;;;;;;9.30;7.00;;;20.90;47.00;;;;;;4856669;28;45257;-83
2023/10/07 03:58:20;;;;;;;10.00;6.90;;;20.90;46.40;;;;;;4875157;28;46624;-83
2023/10/07 04:00:46;;;;;;;9.73;6.35;;;20.90;46.40;;;;;;4869972;28;45840;-85
2023/10/07 04:03:12;;;;;;;11.32;7.22;;;20.90;46.40;;;;;;4887808;28;45271;-83
2023/10/07 04:05:42;;;;;;;10.25;6.88;;;20.90;46.40;;;;;;4879412;28;46013;-84
2023/10/07 04:08:09;;;;;;;9.68;6.68;;;20.90;46.40;;;;;;4888007;28;45619;-83
2023/10/07 04:10:43;;;;;;;9.82;6.55;;;20.90;46.40;;;;;;4856637;28;45756;-84
2023/10/07 04:13:09;;;;;;;10.33;7.00;;;20.90;46.40;;;;;;4873687;28;45621;-83
2023/10/07 04:15:51;;;;;;;9.98;6.72;;;20.90;46.30;;;;;;4855612;28;45111;-83
2023/10/07 04:18:17;;;;;;;9.25;6.45;;;20.90;46.30;;;;;;4867101;28;45552;-87
2023/10/07 04:23:24;;;;;;;9.47;6.67;;;20.90;46.30;;;;;;4878966;28;45741;-84
2023/10/07 04:26:19;;;;;;;9.90;6.57;;;20.90;46.30;;;;;;4868639;28;45748;-83
2023/10/07 04:28:48;;;;;;;10.88;7.00;;;20.90;46.30;;;;;;4858635;28;45524;-87
2023/10/07 04:31:17;;;;;;;9.82;6.28;;;20.90;46.30;;;;;;4867298;28;45338;-83
2023/10/07 04:33:53;;;;;;;10.98;7.10;;;20.90;46.30;;;;;;4871454;28;45293;-82
2023/10/07 04:36:32;;;;;;;10.00;6.75;;;20.90;46.30;;;;;;4867868;28;45423;-84
2023/10/07 04:38:59;;;;;;;8.73;6.30;;;20.90;46.30;;;;;;4842866;28;46238;-86
2023/10/07 04:43:59;;;;;;;8.82;6.25;;;20.90;46.30;;;;;;4870138;28;46387;-83
2023/10/07 04:46:28;;;;;;;11.32;7.18;;;20.90;46.20;;;;;;4861116;28;45672;-84
2023/10/07 04:49:12;;;;;;;10.17;6.80;;;20.90;46.20;;;;;;4872720;28;47246;-83
2023/10/07 04:54:20;;;;;;;10.57;6.80;;;20.90;46.20;;;;;;4859419;28;45202;-83
2023/10/07 04:57:00;;;;;;;10.40;6.80;;;20.90;46.20;;;;;;4855356;28;44823;-84
2023/10/07 04:59:27;;;;;;;9.52;6.65;;;20.90;46.20;;;;;;4874069;28;45466;-85
2023/10/07 05:01:56;;;;;;;10.00;6.53;;;20.90;46.20;;;;;;4865483;28;45523;-84
2023/10/07 05:04:24;;;;;;;9.93;6.60;;;20.80;46.10;;;;;;4870962;28;45839;-83
2023/10/07 05:06:51;;;;;;;10.35;6.85;;;20.90;46.20;;;;;;4875929;28;45944;-83
2023/10/07 05:09:21;;;;;;;9.33;6.47;;;20.90;46.10;;;;;;4842086;28;45710;-83
2023/10/07 05:11:47;;;;;;;9.77;6.43;;;20.90;46.20;;;;;;4859050;28;45288;-86
2023/10/07 05:14:22;;;;;;;9.32;6.38;;;20.80;46.10;;;;;;4855217;28;45659;-83
2023/10/07 05:16:48;;;;;;;8.43;5.93;;;20.90;46.20;;;;;;4884041;28;45015;-83
2023/10/07 05:19:22;;;;;;;9.25;6.18;;;20.80;46.10;;;;;;4870945;28;45284;-83
2023/10/07 05:21:58;;;;;;;9.70;6.50;;;20.80;46.10;;;;;;4861662;28;45482;-83
2023/10/07 05:24:28;;;;;;;10.33;6.57;;;20.80;46.10;;;;;;4846556;28;45524;-85
2023/10/07 05:26:55;;;;;;;8.55;6.25;;;20.80;46.10;;;;;;4871147;28;45545;-83
2023/10/07 05:29:21;;;;;;;8.93;6.18;;;20.80;46.10;;;;;;4884929;28;46006;-88
2023/10/07 05:31:49;;;;;;;10.17;6.57;;;20.80;46.10;;;;;;4862728;28;45599;-84
2023/10/07 05:34:15;;;;;;;9.65;6.70;;;20.80;46.10;;;;;;4879669;28;45664;-85
2023/10/07 05:36:40;;;;;;;9.13;6.03;;;20.80;46.00;;;;;;4871577;28;45323;-84
2023/10/07 05:39:13;;;;;;;9.48;6.47;;;20.80;46.00;;;;;;4885729;28;45389;-86
2023/10/07 05:41:41;;;;;;;9.32;6.13;;;20.80;46.10;;;;;;4886770;28;45469;-84
2023/10/07 05:44:07;;;;;;;10.43;7.03;;;20.80;46.00;;;;;;4872390;28;45588;-84
2023/10/07 05:46:33;;;;;;;9.88;6.55;;;20.80;46.00;;;;;;4855110;28;45342;-83
2023/10/07 05:48:59;;;;;;;10.50;6.80;;;20.80;46.00;;;;;;4871679;28;45415;-86
2023/10/07 05:51:25;;;;;;;8.88;6.22;;;20.80;46.00;;;;;;4871913;28;45264;-85
2023/10/07 05:53:51;;;;;;;9.40;6.32;;;20.80;46.00;;;;;;4872881;28;44821;-84
2023/10/07 05:56:17;;;;;;;9.48;6.50;;;20.80;46.00;;;;;;4856088;28;45787;-85
2023/10/07 05:58:45;;;;;;;9.67;6.30;;;20.80;46.00;;;;;;4859724;28;47034;-84
2023/10/07 06:01:14;;;;;;;9.20;6.18;;;20.80;46.00;;;;;;4848397;29;45729;-85
2023/10/07 06:03:40;;;;;;;9.27;6.47;;;20.80;46.00;;;;;;4822457;29;45272;-83
2023/10/07 06:06:06;;;;;;;8.77;6.33;;;20.80;46.10;;;;;;4883221;29;46208;-83
2023/10/07 06:08:32;;;;;;;10.43;6.28;;;20.80;46.10;;;;;;4855217;29;45841;-84
2023/10/07 06:10:59;;;;;;;9.27;6.30;;;20.80;46.00;;;;;;4852245;29;44979;-83
2023/10/07 06:13:28;;;;;;;9.50;6.00;;;20.80;46.00;;;;;;4876240;29;45020;-84
2023/10/07 06:15:55;;;;;;;9.23;6.27;;;20.80;46.00;;;;;;4868308;29;45832;-81
2023/10/07 06:18:22;;;;;;;9.02;6.07;;;20.80;46.00;;;;;;4871269;29;46222;-83
2023/10/07 06:20:52;;;;;;;9.45;5.93;;;20.80;46.00;;;;;;4862387;29;45303;-87
2023/10/07 06:23:19;;;;;;;8.38;6.03;;;20.80;46.00;;;;;;4854038;29;45454;-84
2023/10/07 06:25:51;;;;;;;9.30;5.97;;;20.80;46.00;;;;;;4868987;29;45295;-84
2023/10/07 06:28:29;;;;;;;9.25;6.35;;;20.80;46.10;;;;;;4852968;29;46226;-84
2023/10/07 06:31:01;;;;;;;9.90;6.00;;;20.80;46.00;;;;;;4871325;29;45360;-85
2023/10/07 06:33:27;;;;;;;9.47;6.33;;;20.80;46.00;;;;;;4854050;29;45403;-84
2023/10/07 06:35:53;;;;;;;8.67;6.00;;;20.80;46.00;;;;;;4839787;29;45749;-86
2023/10/07 06:38:20;;;;;;;8.47;5.93;;;20.80;46.00;;;;;;4865161;29;46171;-87
2023/10/07 06:40:45;;;;;;;9.00;6.17;;;20.80;46.00;;;;;;4879658;29;45544;-84
2023/10/07 06:43:14;;;;;;;9.00;6.00;;;20.80;46.00;;;;;;4890038;28;46145;-82
2023/10/07 06:45:44;;;;;;;9.00;6.00;;;20.80;46.00;;;;;;4862683;29;45206;-83
2023/10/07 06:48:12;;;;;;;8.30;6.13;;;20.80;46.00;;;;;;4871180;29;45157;-84
2023/10/07 06:50:43;;;;;;;8.98;6.00;;;20.80;46.00;;;;;;4850902;28;45640;-83
2023/10/07 06:53:11;;;;;;;10.18;6.97;;;20.80;46.00;;;;;;4877160;29;45203;-85
2023/10/07 06:55:44;;;;;;;9.02;6.05;;;20.70;46.00;;;;;;4859235;29;45072;-83
2023/10/07 06:58:11;;;;;;;9.17;6.40;;;20.70;45.90;;;;;;4868320;29;45371;-83
2023/10/07 07:00:48;;;;;;;9.60;6.20;;;20.80;46.00;;;;;;4832323;29;45705;-83
2023/10/07 07:03:17;;;;;;;8.88;6.05;;;20.70;46.00;;;;;;4884666;28;44746;-83
2023/10/07 07:05:45;;;;;;;8.95;6.32;;;20.70;46.00;;;;;;4889361;28;46212;-83
2023/10/07 07:08:11;;;;;;;8.45;5.78;;;20.70;46.00;;;;;;4901159;28;46695;-84
2023/10/07 07:10:37;;;;;;;8.98;5.88;;;20.70;46.00;;;;;;4885924;28;46095;-84
2023/10/07 07:13:13;;;;;;;9.02;5.97;;;20.70;46.00;;;;;;4900946;28;45428;-81
2023/10/07 07:15:45;;;;;;;8.98;5.90;;;20.70;46.00;;;;;;4898114;28;45303;-82
2023/10/07 07:20:54;;;;;;;9.60;6.43;;;20.70;46.00;;;;;;4868360;28;45725;-84
2023/10/07 07:23:22;;;;;;;9.35;6.50;;;20.70;46.00;;;;;;4896539;28;45301;-85
2023/10/07 07:26:09;;;;;;;9.07;6.00;;;20.70;46.00;;;;;;4887929;28;44906;-84
2023/10/07 07:28:38;;;;;;;8.52;6.03;;;20.80;46.10;;;;;;4902846;28;46995;-84
2023/10/07 07:31:10;;;;;;;8.55;6.05;;;20.70;46.00;;;;;;4874187;28;45371;-82
2023/10/07 07:33:36;;;;;;;8.82;6.10;;;20.70;46.00;;;;;;4860457;28;45316;-84
2023/10/07 07:36:19;;;;;;;10.65;5.93;;;20.70;46.00;;;;;;4854628;28;45489;-84
2023/10/07 07:38:45;;;;;;;8.65;6.05;;;20.70;46.00;;;;;;4880864;28;45261;-84
2023/10/07 07:41:26;;;;;;;9.15;6.35;;;20.70;46.00;;;;;;4886470;28;44717;-83
2023/10/07 07:43:53;;;;;;;9.40;6.07;;;20.70;46.00;;;;;;4873559;28;45791;-81
2023/10/07 07:46:26;;;;;;;9.20;6.27;;;20.70;46.00;;;;;;4868473;28;45845;-83
2023/10/07 07:48:53;;;;;;;10.20;6.55;;;20.70;46.00;;;;;;4871414;28;46590;-85
2023/10/07 07:51:24;;;;;;;8.90;6.03;;;20.70;46.00;;;;;;4870570;28;45679;-85
2023/10/07 07:53:50;;;;;;;8.95;6.22;;;20.70;46.60;;;;;;4881258;28;44717;-84
2023/10/07 07:56:16;;;;;;;8.73;5.85;;;20.70;46.10;;;;;;4897572;28;45544;-84
2023/10/07 07:58:47;;;;;;;8.48;6.00;;;20.70;46.00;;;;;;4883720;28;46479;-86
2023/10/07 08:01:18;;;;;;;8.85;5.93;;;20.70;46.00;;;;;;4857926;28;45380;-84
2023/10/07 08:03:44;;;;;;;9.60;6.47;;;20.70;46.00;;;;;;4857234;28;45589;-83
2023/10/07 08:06:19;;;;;;;9.20;6.18;;;20.70;46.00;;;;;;4839759;28;45509;-83
2023/10/07 08:08:46;;;;;;;9.45;6.25;;;20.70;46.00;;;;;;4893088;28;46243;-83
2023/10/07 08:11:14;;;;;;;8.43;6.10;;;20.70;46.00;;;;;;4862254;28;45170;-84
2023/10/07 08:13:40;;;;;;;10.50;6.82;;;20.70;46.10;;;;;;4850968;28;45330;-84
2023/10/07 08:16:14;;;;;;;8.27;6.13;;;20.70;46.00;;;;;;4860950;28;45249;-83
2023/10/07 08:18:40;;;;;;;8.50;6.00;;;20.70;46.00;;;;;;4883376;29;45311;-87
2023/10/07 08:21:09;;;;;;;9.40;6.35;;;20.70;46.00;;;;;;4847273;29;45341;-85
2023/10/07 08:23:36;;;;;;;8.73;6.30;;;20.70;46.00;;;;;;4861599;29;45804;-83
2023/10/07 08:26:11;;;;;;;8.98;6.32;;;20.70;46.00;;;;;;4876409;28;45877;-84
2023/10/07 08:29:04;;;;;;;9.57;6.35;;;20.70;46.10;;;;;;4859035;29;45759;-85
2023/10/07 08:31:37;;;;;;;9.50;6.07;;;20.70;46.00;;;;;;4861455;29;45624;-85
2023/10/07 08:34:33;;;;;;;7.80;5.80;;;20.70;46.10;;;;;;4852049;28;45596;-85
2023/10/07 08:37:02;;;;;;;8.00;5.80;;;20.70;46.10;;;;;;4897302;28;46500;-85
2023/10/07 08:39:28;;;;;;;9.73;6.30;;;20.70;46.10;;;;;;4873232;28;45651;-84
2023/10/07 08:41:58;;;;;;;9.70;6.45;;;20.70;46.10;;;;;;4876459;29;45673;-85
2023/10/07 08:44:31;;;;;;;9.17;6.30;;;20.70;46.10;;;;;;4876317;28;45296;-84
2023/10/07 08:47:03;;;;;;;8.68;5.90;;;20.70;46.10;;;;;;4860905;28;45634;-84
2023/10/07 08:49:33;;;;;;;9.32;6.30;;;20.70;46.10;;;;;;4875367;28;46090;-84
2023/10/07 08:52:08;;;;;;;8.90;6.20;;;20.70;46.10;;;;;;4875597;29;45758;-86
2023/10/07 08:54:37;;;;;;;8.77;5.88;;;20.70;46.10;;;;;;4899306;28;45794;-86
2023/10/07 08:57:16;;;;;;;9.10;6.35;;;20.70;46.10;;;;;;4870003;28;45382;-83
2023/10/07 08:59:49;;;;;;;10.15;6.55;;;20.70;46.10;;;;;;4867708;29;45252;-84
2023/10/07 09:02:26;;;;;;;8.93;6.05;;;20.70;46.10;;;;;;4865509;29;45125;-85
2023/10/07 09:04:54;;;;;;;9.20;6.20;;;20.70;46.20;;;;;;4870477;29;45511;-84
2023/10/07 09:07:23;;;;;;;9.17;6.13;;;20.70;46.10;;;;;;4847222;29;45823;-89
2023/10/07 09:09:49;;;;;;;8.32;6.10;;;20.70;46.10;;;;;;4863375;29;46428;-85
2023/10/07 09:12:15;;;;;;;8.77;6.10;;;20.70;46.10;;;;;;4845032;29;45856;-86
2023/10/07 09:14:52;;;;;;;9.23;6.28;;;20.70;46.20;;;;;;4876382;29;46283;-87
2023/10/07 09:17:21;;;;;;;9.15;6.20;;;20.70;46.20;;;;;;4860305;29;45243;-84
2023/10/07 09:19:49;;;;;;;9.33;6.47;;;20.70;46.20;;;;;;4863796;29;45530;-85
2023/10/07 09:22:15;;;;;;;9.45;6.00;;;20.70;46.20;;;;;;4846171;29;45348;-85
2023/10/07 09:24:43;;;;;;;8.40;6.13;;;20.70;46.20;;;;;;4865779;29;45620;-84
2023/10/07 09:27:13;;;;;;;8.45;5.63;;;20.70;46.20;;;;;;4871699;29;45519;-84
2023/10/07 09:29:44;;;;;;;8.17;5.80;;;20.70;46.20;;;;;;4850479;29;47269;-82
2023/10/07 09:32:16;;;;;;;10.77;6.35;;;20.70;46.20;;;;;;4862189;29;45985;-84
2023/10/07 09:34:45;;;;;;;8.80;6.13;;;20.70;46.20;;;;;;4883056;29;45740;-84
2023/10/07 09:37:13;;;;;;;8.57;5.93;;;20.70;46.30;;;;;;4846319;29;45751;-86
2023/10/07 09:39:44;;;;;;;8.80;6.03;;;20.70;46.30;;;;;;4819071;29;46201;-83
2023/10/07 09:45:17;;;;;;;8.82;5.63;;;20.70;46.30;;;;;;4837055;29;45949;-86
2023/10/07 09:47:46;;;;;;;7.57;5.37;;;20.70;46.30;;;;;;4861187;29;45205;-85
2023/10/07 09:52:52;;;;;;;7.95;5.47;;;20.70;46.30;;;;;;4869356;29;45241;-84
2023/10/07 09:55:31;;;;;;;7.77;5.53;;;20.70;46.30;;;;;;4862780;29;45314;-85
2023/10/07 09:58:17;;;;;;;7.90;5.63;;;20.70;46.30;;;;;;4852484;29;45792;-84
2023/10/07 10:01:02;;;;;;;8.05;5.75;;;20.70;46.30;;;;;;4862568;29;45349;-84
2023/10/07 10:03:39;;;;;;;7.97;5.37;;;20.70;46.30;;;;;;4871915;28;45233;-84
2023/10/07 10:06:10;;;;;;;8.25;5.63;;;20.70;46.40;;;;;;4849280;28;46255;-84
2023/10/07 10:08:57;;;;;;;7.47;5.07;;;20.70;46.40;;;;;;4874111;28;45015;-83
2023/10/07 10:16:52;;;;;;;7.50;4.97;;;20.70;46.40;;;;;;4868748;28;45814;-86
2023/10/07 10:19:25;;;;;;;7.57;5.10;;;20.70;46.40;;;;;;4866890;28;45683;-86
2023/10/07 10:21:52;;;;;;;7.07;4.75;;;20.70;46.40;;;;;;4868800;28;45056;-87
2023/10/07 10:24:22;;;;;;;7.28;4.88;;;20.70;46.40;;;;;;4880029;28;45704;-86
2023/10/07 10:27:01;;;;;;;7.18;4.75;;;20.70;46.40;;;;;;4865674;28;45793;-87
2023/10/07 10:29:33;;;;;;;7.20;4.97;;;20.70;46.40;;;;;;4873510;28;45467;-86
2023/10/07 10:32:03;;;;;;;7.50;5.28;;;20.70;46.40;;;;;;4845286;28;45509;-87
2023/10/07 10:34:29;;;;;;;7.22;4.90;;;20.70;46.50;;;;;;4885893;28;44836;-87
2023/10/07 10:36:58;;;;;;;8.20;5.07;;;20.70;46.50;;;;;;4882964;28;44855;-86
2023/10/07 10:39:27;;;;;;;7.03;4.93;;;20.70;46.50;;;;;;4854583;28;46016;-87
2023/10/07 10:41:54;;;;;;;7.00;4.70;;;20.70;46.50;;;;;;4891031;28;46453;-85
2023/10/07 10:44:20;;;;;;;7.65;4.90;;;20.70;46.50;;;;;;4853115;28;45545;-86
2023/10/07 10:46:50;;;;;;;7.95;4.70;;;20.70;46.50;;;;;;4856005;28;44758;-84
2023/10/07 10:49:17;;;;;;;6.43;4.70;;;20.70;46.50;;;;;;4859478;28;45633;-85
2023/10/07 10:51:45;;;;;;;6.38;4.43;;;20.70;46.50;;;;;;4885782;28;45433;-85
2023/10/07 10:54:15;;;;;;;7.50;4.57;;;20.70;46.60;;;;;;4857036;28;45349;-86
2023/10/07 10:57:00;;;;;;;5.97;4.53;;;20.70;46.60;;;;;;4873050;28;45258;-84
2023/10/07 10:59:48;;;;;;;5.95;4.30;;;20.70;46.60;;;;;;4865992;28;45381;-87
2023/10/07 11:02:20;;;;;;;6.05;4.45;;;20.70;46.60;;;;;;4853309;29;45738;-85
2023/10/07 11:04:55;;;;;;;6.05;4.13;;;20.70;46.60;;;;;;4853712;29;45584;-85
2023/10/07 11:07:24;;;;;;;7.13;4.38;;;20.70;46.60;;;;;;4837821;29;45257;-85
2023/10/07 11:09:51;;;;;;;6.38;4.55;;;20.70;46.60;;;;;;4826088;29;45400;-85
2023/10/07 11:12:17;;;;;;;6.32;4.07;;;20.70;46.60;;;;;;4852265;29;45265;-85
2023/10/07 11:14:44;;;;;;;6.50;4.50;;;20.70;46.60;;;;;;4840756;29;45458;-85
2023/10/07 11:17:12;;;;;;;6.43;4.25;;;20.70;46.60;;;;;;4850745;29;45263;-87
2023/10/07 11:19:46;;;;;;;6.50;4.20;;;20.70;46.60;;;;;;4864796;29;45435;-85
2023/10/07 11:22:19;;;;;;;6.07;4.20;;;20.70;46.60;;;;;;4846003;29;45687;-88
2023/10/07 11:24:50;;;;;;;8.48;4.20;;;20.70;46.60;;;;;;4829815;29;44686;-85
2023/10/07 11:27:18;;;;;;;5.95;4.15;;;20.70;46.70;;;;;;4862582;29;45287;-89
2023/10/07 11:29:45;;;;;;;7.47;4.10;;;20.70;46.70;;;;;;4845033;28;44988;-85
2023/10/07 11:32:13;;;;;;;6.32;4.40;;;20.70;46.70;;;;;;4852366;29;46418;-86
2023/10/07 11:34:43;;;;;;;6.45;3.83;;;20.70;46.70;;;;;;4841158;29;45403;-85
2023/10/07 11:37:21;;;;;;;5.47;3.60;;;20.70;46.70;;;;;;4845209;29;45783;-86
2023/10/07 11:39:47;;;;;;;6.20;3.90;;;20.70;46.80;;;;;;4835215;29;45457;-87
2023/10/07 11:42:20;;;;;;;5.67;3.90;;;20.70;46.80;;;;;;4850421;29;47021;-85
2023/10/07 11:44:55;;;;;;;5.15;3.60;;;20.70;46.80;;;;;;4835750;29;45044;-87
2023/10/07 11:47:22;;;;;;;4.85;3.60;;;20.70;46.80;;;;;;4847419;29;45060;-86
2023/10/07 11:49:50;;;;;;;6.88;4.18;;;20.70;46.80;;;;;;4851455;29;45322;-85
2023/10/07 11:52:18;;;;;;;5.83;3.87;;;20.70;46.80;;;;;;4839851;29;45556;-85
2023/10/07 11:54:47;;;;;;;5.60;3.60;;;20.70;46.80;;;;;;4832194;29;44931;-87
2023/10/07 11:57:13;;;;;;;6.45;3.88;;;20.70;46.80;;;;;;4816193;29;45183;-86
2023/10/07 11:59:41;;;;;;;6.15;4.13;;;20.70;46.80;;;;;;4820804;29;45160;-88
2023/10/07 12:05:07;;;;;;;5.65;3.40;;;20.70;46.90;;;;;;4873470;28;45345;-92
2023/10/07 12:07:36;;;;;;;5.65;3.70;;;20.70;46.90;;;;;;4855716;28;45403;-86
2023/10/07 12:10:15;;;;;;;5.25;3.38;;;20.70;46.90;;;;;;4869062;28;45454;-90
2023/10/07 12:12:45;;;;;;;5.70;3.70;;;20.70;46.90;;;;;;4873660;28;45375;-87
2023/10/07 12:15:12;;;;;;;5.93;3.60;;;20.70;46.90;;;;;;4863937;29;46098;-86
2023/10/07 12:17:39;;;;;;;4.95;3.45;;;20.70;47.00;;;;;;4860395;28;45376;-85
2023/10/07 12:20:12;;;;;;;6.25;3.60;;;20.70;47.00;;;;;;4895188;28;45587;-87
2023/10/07 12:22:42;;;;;;;5.60;3.47;;;20.70;47.00;;;;;;4878099;28;46365;-87
2023/10/07 12:25:16;;;;;;;4.70;3.30;;;20.70;47.00;;;;;;4881205;29;45449;-85
2023/10/07 12:27:45;;;;;;;5.28;3.50;;;20.70;47.00;;;;;;4867602;28;45530;-88
2023/10/07 12:30:11;;;;;;;5.65;3.67;;;20.70;47.00;;;;;;4873508;28;45307;-85
2023/10/07 12:32:39;;;;;;;5.68;3.40;;;20.70;47.00;;;;;;4864463;28;46078;-85
2023/10/07 12:35:13;;;;;;;5.38;3.67;;;20.70;47.00;;;;;;4873941;29;45133;-89
2023/10/07 12:37:40;;;;;;;4.45;3.30;;;20.70;47.00;;;;;;4877098;28;45525;-86
2023/10/07 12:40:11;;;;;;;4.75;3.22;;;20.70;47.10;;;;;;4848339;28;45432;-87
2023/10/07 12:43:01;;;;;;;5.20;3.60;;;20.70;47.10;;;;;;4897277;28;47012;-86
2023/10/07 12:45:30;;;;;;;5.53;3.65;;;20.70;47.10;;;;;;4880404;28;44983;-87
2023/10/07 12:47:57;;;;;;;4.97;3.40;;;20.70;47.10;;;;;;4851526;28;44963;-87
2023/10/07 12:50:30;;;;;;;4.30;3.23;;;20.70;47.10;;;;;;4852738;28;45459;-89
2023/10/07 12:52:56;;;;;;;4.73;3.40;;;20.70;47.10;;;;;;4889925;28;45700;-86
2023/10/07 12:55:23;;;;;;;6.27;3.63;;;20.70;47.10;;;;;;4866757;28;44911;-85
2023/10/07 12:57:52;;;;;;;5.70;3.40;;;20.70;47.10;;;;;;4881369;28;45243;-86
2023/10/07 13:00:22;;;;;;;5.53;3.53;;;20.70;47.10;;;;;;4862990;29;45781;-86
2023/10/07 13:02:53;;;;;;;5.28;3.10;;;20.70;47.10;;;;;;4867942;28;46010;-87
2023/10/07 13:05:20;;;;;;;5.93;3.50;;;20.70;47.10;;;;;;4882906;28;44733;-87
2023/10/07 13:07:46;;;;;;;6.53;3.45;;;20.70;47.10;;;;;;4886904;28;44877;-85
2023/10/07 13:10:13;;;;;;;7.28;3.60;;;20.70;47.10;;;;;;4866931;28;45420;-85
2023/10/07 13:12:40;;;;;;;5.05;3.38;;;20.70;47.20;;;;;;4887129;28;46411;-90
2023/10/07 13:15:18;;;;;;;4.93;3.10;;;20.70;47.10;;;;;;4900012;28;45304;-88
2023/10/07 13:17:45;;;;;;;5.60;3.50;;;20.70;47.20;;;;;;4886781;28;45232;-86
2023/10/07 13:20:23;;;;;;;6.32;3.80;;;20.70;47.20;;;;;;4868692;28;45295;-85
2023/10/07 13:22:53;;;;;;;5.10;3.30;;;20.70;47.20;;;;;;4876172;28;45097;-85
2023/10/07 13:25:19;;;;;;;5.20;3.58;;;20.70;47.20;;;;;;4904045;28;45367;-87
2023/10/07 13:27:52;;;;;;;5.53;3.33;;;20.70;47.20;;;;;;4897882;28;46760;-86
2023/10/07 13:30:18;;;;;;;4.18;3.10;;;20.70;47.20;;;;;;4868209;28;45131;-88
2023/10/07 13:32:47;;;;;;;5.63;3.43;;;20.70;47.30;;;;;;4869335;28;45515;-87
2023/10/07 13:35:16;;;;;;;6.75;3.38;;;20.70;47.20;;;;;;4866412;28;45832;-88
2023/10/07 13:37:46;;;;;;;5.77;3.20;;;20.70;47.40;;;;;;4855816;29;45486;-86
2023/10/07 13:40:15;;;;;;;5.82;3.30;;;20.80;47.30;;;;;;4877530;28;45130;-85
2023/10/07 13:43:11;;;;;;;5.25;3.40;;;20.70;47.30;;;;;;4887556;28;46772;-85
2023/10/07 13:45:37;;;;;;;4.30;3.05;;;20.70;47.30;;;;;;4896400;28;44709;-85
2023/10/07 13:48:07;;;;;;;5.30;3.50;;;20.70;47.30;;;;;;4911071;28;45262;-85
2023/10/07 13:50:33;;;;;;;6.53;3.40;;;20.70;47.40;;;;;;4872885;28;45549;-86
2023/10/07 13:53:11;;;;;;;8.25;4.13;;;20.70;47.30;;;;;;4861059;29;46149;-85
2023/10/07 13:55:55;;;;;;;5.05;3.60;;;20.70;47.30;;;;;;4857366;28;45237;-86
2023/10/07 13:58:21;;;;;;;4.63;3.50;;;20.70;47.40;;;;;;4855210;29;45199;-84
2023/10/07 14:00:47;;;;;;;5.10;3.15;;;20.70;47.40;;;;;;4886387;28;45599;-89
2023/10/07 14:03:35;;;;;;;5.20;3.43;;;20.70;47.40;;;;;;4865216;28;45604;-86
2023/10/07 14:06:03;;;;;;;6.28;2.83;;;20.70;47.40;;;;;;4883336;28;44700;-89
2023/10/07 14:08:30;;;;;;;4.43;3.38;;;20.80;47.50;;;;;;4874038;28;44851;-86
2023/10/07 14:10:57;;;;;;;3.97;3.17;;;20.80;47.50;;;;;;4881553;28;44993;-86
2023/10/07 14:13:24;;;;;;;5.88;3.40;;;20.80;47.50;;;;;;4870017;28;46273;-87
2023/10/07 14:15:53;;;;;;;6.35;3.40;;;20.70;47.40;;;;;;4895972;28;45168;-85
2023/10/07 14:18:23;;;;;;;4.82;3.20;;;20.70;47.50;;;;;;4855019;28;45539;-88
2023/10/07 14:21:00;;;;;;;5.55;3.58;;;20.70;47.50;;;;;;4871832;28;45239;-86
2023/10/07 14:23:33;;;;;;;5.93;3.28;;;20.70;47.50;;;;;;4870965;28;46928;-90
2023/10/07 14:26:09;;;;;;;4.73;3.40;;;20.70;47.50;;;;;;4884860;28;45656;-87
2023/10/07 14:28:38;;;;;;;7.35;3.47;;;20.70;47.50;;;;;;4904906;28;45291;-87
2023/10/07 14:31:13;;;;;;;5.10;3.30;;;20.70;47.50;;;;;;4884357;28;45397;-87
2023/10/07 14:33:39;;;;;;;6.68;3.60;;;20.70;47.50;;;;;;4873337;28;45965;-85
2023/10/07 14:36:11;;;;;;;5.67;3.20;;;20.70;47.60;;;;;;4868446;28;45029;-87
2023/10/07 14:38:37;;;;;;;5.78;3.30;;;20.70;47.60;;;;;;4884236;28;45472;-87
2023/10/07 14:41:03;;;;;;;4.87;3.47;;;20.70;47.60;;;;;;4881737;28;45205;-87
2023/10/07 14:43:29;;;;;;;4.30;3.27;;;20.70;47.60;;;;;;4881517;28;46298;-85
2023/10/07 14:45:55;;;;;;;4.55;2.90;;;20.70;47.60;;;;;;4900806;28;45423;-87
2023/10/07 14:48:22;;;;;;;4.27;3.20;;;20.70;47.60;;;;;;4885635;28;44892;-86
2023/10/07 14:50:48;;;;;;;5.63;3.20;;;20.70;47.60;;;;;;4871411;28;45523;-85
2023/10/07 14:53:14;;;;;;;5.45;3.40;;;20.70;47.60;;;;;;4868598;28;46124;-85
2023/10/07 14:55:49;;;;;;;6.30;3.53;;;20.70;47.60;;;;;;4875704;28;45791;-87
2023/10/07 14:58:15;;;;;;;5.60;3.53;;;20.70;47.70;;;;;;4860603;28;44687;-85
2023/10/07 15:00:47;;;;;;;4.82;3.42;;;20.80;47.70;;;;;;4899618;28;45770;-85
2023/10/07 15:03:14;;;;;;;5.07;3.38;;;20.70;47.70;;;;;;4875955;28;45243;-83
2023/10/07 15:05:44;;;;;;;5.30;3.15;;;20.80;47.70;;;;;;4869306;28;45101;-84
2023/10/07 15:08:13;;;;;;;5.57;3.30;;;20.80;47.70;;;;;;4901372;28;46828;-85
2023/10/07 15:10:43;;;;;;;4.50;3.10;;;20.80;47.70;;;;;;4900787;28;45359;-86
2023/10/07 15:13:10;;;;;;;5.43;3.00;;;20.80;47.70;;;;;;4875016;28;46041;-87
2023/10/07 15:15:37;;;;;;;5.30;3.30;;;20.70;47.70;;;;;;4893874;28;44939;-86
2023/10/07 15:18:03;;;;;;;4.32;3.00;;;20.80;47.80;;;;;;4900900;28;45564;-85
2023/10/07 15:20:31;;;;;;;4.95;3.10;;;20.70;47.70;;;;;;4868554;28;45212;-85
2023/10/07 15:23:02;;;;;;;4.03;2.92;;;20.80;47.80;;;;;;4885680;28;45926;-85
2023/10/07 15:25:28;;;;;;;4.18;2.95;;;20.80;47.80;;;;;;4887208;28;44993;-85
2023/10/07 15:27:53;;;;;;;4.88;3.15;;;20.80;47.80;;;;;;4904539;28;45200;-85
2023/10/07 15:30:20;;;;;;;4.72;3.20;;;20.70;47.80;;;;;;4885910;28;45104;-89
2023/10/07 15:32:45;;;;;;;5.05;3.05;;;20.80;47.80;;;;;;4885674;28;46432;-86
2023/10/07 15:35:14;;;;;;;4.10;3.10;;;20.80;47.80;;;;;;4873114;28;45213;-85
2023/10/07 15:37:42;;;;;;;4.03;2.88;;;20.80;47.80;;;;;;4891648;28;44967;-88
2023/10/07 15:40:14;;;;;;;4.05;3.15;;;20.80;47.80;;;;;;4866466;28;45479;-86
2023/10/07 15:42:44;;;;;;;3.67;2.97;;;20.80;47.80;;;;;;4893626;28;46418;-88
2023/10/07 15:45:13;;;;;;;4.53;2.90;;;20.80;47.80;;;;;;4868348;28;45424;-89
2023/10/07 15:47:41;;;;;;;4.53;3.20;;;20.80;47.80;;;;;;4882587;28;45030;-87
2023/10/07 15:50:08;;;;;;;4.47;3.25;;;20.80;47.90;;;;;;4878999;28;45146;-89
2023/10/07 15:52:36;;;;;;;4.85;3.05;;;20.70;47.80;;;;;;4900115;28;45601;-85
2023/10/07 15:55:06;;;;;;;4.60;3.33;;;20.80;47.80;;;;;;4883648;28;45361;-91
2023/10/07 15:57:34;;;;;;;4.40;3.13;;;20.80;47.80;;;;;;4853866;28;45404;-83
2023/10/07 16:00:02;;;;;;;4.47;3.20;;;20.80;47.80;;;;;;4868960;28;45418;-85
2023/10/07 16:02:30;;;;;;;4.70;3.08;;;20.80;48.50;;;;;;4862916;28;45521;-86
2023/10/07 16:05:15;;;;;;;4.27;3.03;;;20.80;47.90;;;;;;4896480;28;45705;-85
2023/10/07 16:07:42;;;;;;;4.55;3.28;;;20.80;47.90;;;;;;4883211;28;45657;-84
2023/10/07 16:10:12;;;;;;;3.42;2.75;;;20.80;47.90;;;;;;4880670;28;45622;-85
2023/10/07 16:12:41;;;;;;;4.32;2.85;;;20.80;48.00;;;;;;4898493;28;44903;-88
2023/10/07 16:15:14;;;;;;;4.50;3.30;;;20.80;48.00;;;;;;4882786;28;45285;-85
2023/10/07 16:17:40;;;;;;;5.25;3.38;;;20.80;47.90;;;;;;4894087;28;45022;-85
2023/10/07 16:20:09;;;;;;;4.97;3.20;;;20.80;47.90;;;;;;4867292;28;45295;-85
2023/10/07 16:22:39;;;;;;;4.10;3.05;;;20.80;48.00;;;;;;4879569;28;46255;-85
2023/10/07 16:25:09;;;;;;;4.07;2.80;;;20.80;48.00;;;;;;4881443;28;44745;-90
2023/10/07 16:27:35;;;;;;;4.25;3.10;;;20.80;47.90;;;;;;4858817;28;45817;-85